Time;durP1;ratioP1;P1;durP2;ratioP2;P2;SDS_P1;SDS_P2;PMS_P1;PMS_P2;Temp;Humidity;BMP_temperature;BMP_pressure;BME280_temperature;BME280_humidity;BME280_pressure;Samples;Min_cycle;Max_cycle;Signal;HPM_P1;HPM_P2
2022/01/17 05:01:52;;;;;;;31.98;18.08;;;2.40;99.90;;;;;;5319525;22;96704;-77
2022/01/17 05:04:17;;;;;;;32.55;17.13;;;2.40;99.90;;;;;;5018259;28;94334;-79
2022/01/17 05:06:43;;;;;;;32.45;17.40;;;2.50;99.90;;;;;;5018828;28;94634;-79
2022/01/17 05:09:12;;;;;;;30.00;17.25;;;2.40;99.90;;;;;;5019113;28;94499;-79
2022/01/17 05:11:37;;;;;;;33.25;17.27;;;2.50;99.90;;;;;;5002855;28;97266;-79
2022/01/17 05:14:03;;;;;;;30.65;16.85;;;2.50;99.90;;;;;;5001658;22;94589;-77
2022/01/17 05:16:36;;;;;;;30.75;16.60;;;2.60;99.90;;;;;;5015101;28;94481;-77
2022/01/17 05:21:47;;;;;;;27.02;14.85;;;2.60;99.90;;;;;;5015277;28;95474;-77
2022/01/17 05:24:12;;;;;;;26.95;15.10;;;2.60;99.90;;;;;;5015429;28;94339;-77
2022/01/17 05:26:38;;;;;;;28.15;15.05;;;2.60;99.90;;;;;;5015426;28;94598;-77
2022/01/17 05:29:03;;;;;;;27.05;14.90;;;2.60;99.90;;;;;;5006513;28;95071;-77
2022/01/17 05:31:29;;;;;;;27.13;14.90;;;2.60;99.90;;;;;;4997782;28;95180;-77
2022/01/17 05:33:55;;;;;;;26.25;14.43;;;2.60;99.90;;;;;;4995509;28;94409;-77
2022/01/17 05:36:20;;;;;;;25.90;14.50;;;2.60;99.90;;;;;;4995121;28;93942;-77
2022/01/17 05:38:46;;;;;;;26.95;14.27;;;2.60;99.90;;;;;;4995228;28;95149;-77
2022/01/17 05:41:11;;;;;;;25.38;13.82;;;2.60;99.90;;;;;;5001437;28;94823;-77
2022/01/17 05:43:37;;;;;;;24.67;13.80;;;2.70;99.90;;;;;;5013150;28;95506;-77
2022/01/17 05:46:02;;;;;;;27.33;13.88;;;2.70;99.90;;;;;;5001066;28;94472;-77
2022/01/17 05:48:28;;;;;;;23.38;13.38;;;2.70;99.90;;;;;;4995086;28;95365;-77
2022/01/17 05:50:54;;;;;;;26.05;13.63;;;2.80;99.90;;;;;;4996116;28;97615;-77
2022/01/17 05:53:19;;;;;;;23.58;13.35;;;2.70;99.90;;;;;;5013639;28;94643;-77
2022/01/17 05:55:45;;;;;;;23.48;14.05;;;2.80;99.90;;;;;;5014831;28;94431;-77
2022/01/17 05:58:11;;;;;;;24.77;13.75;;;2.80;99.90;;;;;;5008884;28;95446;-78
2022/01/17 06:00:37;;;;;;;24.60;13.63;;;2.80;99.90;;;;;;4993854;28;96917;-77
2022/01/17 06:03:02;;;;;;;24.88;14.27;;;2.90;99.90;;;;;;5014983;28;94388;-77
2022/01/17 06:05:28;;;;;;;26.27;14.38;;;2.80;99.90;;;;;;5006532;28;94862;-77
2022/01/17 06:07:54;;;;;;;26.13;14.27;;;2.80;99.90;;;;;;4989625;28;96582;-77
2022/01/17 06:10:19;;;;;;;25.13;14.40;;;2.90;99.90;;;;;;4994531;28;97347;-77
2022/01/17 06:12:45;;;;;;;24.85;14.10;;;2.80;99.90;;;;;;4993202;28;94506;-77
2022/01/17 06:15:11;;;;;;;23.17;14.32;;;2.90;99.90;;;;;;4992742;28;94572;-76
2022/01/17 06:17:36;;;;;;;25.13;13.82;;;2.90;99.90;;;;;;5004515;28;95245;-77
2022/01/17 06:20:06;;;;;;;26.83;13.73;;;2.90;99.90;;;;;;5009989;28;97810;-77
2022/01/17 06:22:31;;;;;;;25.63;13.73;;;2.90;99.90;;;;;;5011247;28;94902;-77
2022/01/17 06:24:57;;;;;;;25.20;14.10;;;2.90;99.90;;;;;;5013337;28;93871;-77
2022/01/17 06:27:23;;;;;;;23.00;13.80;;;2.90;99.90;;;;;;5006202;28;95190;-77
2022/01/17 06:29:48;;;;;;;24.70;14.25;;;2.90;99.90;;;;;;5001877;28;94829;-78
2022/01/17 06:32:14;;;;;;;24.27;14.90;;;2.90;99.90;;;;;;5013939;28;95446;-77
2022/01/17 06:34:40;;;;;;;27.75;14.52;;;2.90;99.90;;;;;;5010617;28;94427;-77
2022/01/17 06:37:05;;;;;;;25.77;14.70;;;2.90;99.90;;;;;;5003619;28;97773;-78
2022/01/17 06:39:31;;;;;;;26.30;14.68;;;3.00;99.90;;;;;;5016570;28;95139;-78
2022/01/17 06:41:56;;;;;;;25.45;14.82;;;3.00;99.90;;;;;;4999570;28;94412;-78
2022/01/17 06:44:22;;;;;;;25.83;14.73;;;2.90;99.90;;;;;;4995814;28;94638;-81
2022/01/17 06:46:47;;;;;;;28.15;15.38;;;2.90;99.90;;;;;;4998648;28;96405;-77
2022/01/17 06:49:13;;;;;;;25.45;15.40;;;2.90;99.90;;;;;;5014316;28;94823;-77
2022/01/17 06:51:39;;;;;;;29.00;16.67;;;2.90;99.90;;;;;;5014774;28;94589;-77
2022/01/17 06:54:04;;;;;;;28.02;15.95;;;2.90;99.90;;;;;;5005475;28;94475;-77
2022/01/17 06:56:30;;;;;;;27.85;16.50;;;2.90;99.90;;;;;;4993418;28;96077;-77
2022/01/17 06:58:55;;;;;;;27.33;15.88;;;2.90;99.90;;;;;;5013818;28;96248;-77
2022/01/17 07:01:22;;;;;;;26.67;16.23;;;2.90;99.90;;;;;;5007319;28;94773;-77
2022/01/17 07:03:50;;;;;;;29.20;16.40;;;2.80;99.90;;;;;;4993914;28;94386;-77
2022/01/17 07:06:15;;;;;;;31.60;17.67;;;2.80;99.90;;;;;;4992515;28;98127;-77
2022/01/17 07:08:43;;;;;;;28.27;16.25;;;2.80;99.90;;;;;;5011384;28;94928;-77
2022/01/17 07:11:08;;;;;;;27.92;15.68;;;2.80;99.90;;;;;;5009105;28;95311;-77
2022/01/17 07:13:34;;;;;;;25.90;15.98;;;2.90;99.90;;;;;;4992651;28;93751;-77
2022/01/17 07:16:00;;;;;;;29.92;16.95;;;2.80;99.90;;;;;;4985932;28;95210;-77
2022/01/17 07:18:26;;;;;;;29.23;16.58;;;2.80;99.90;;;;;;4988680;28;97964;-77
2022/01/17 07:20:51;;;;;;;30.67;17.02;;;2.80;99.90;;;;;;4994083;28;95690;-76
2022/01/17 07:23:17;;;;;;;29.20;16.95;;;2.80;99.90;;;;;;4993830;28;94396;-76
2022/01/17 07:25:42;;;;;;;26.75;15.07;;;2.80;99.90;;;;;;4993776;28;95206;-76
2022/01/17 07:28:09;;;;;;;28.20;16.00;;;2.80;99.90;;;;;;5000260;28;95167;-76
2022/01/17 07:30:35;;;;;;;29.13;16.10;;;2.90;99.90;;;;;;5013929;28;94383;-76
2022/01/17 07:33:02;;;;;;;28.38;15.52;;;2.90;99.90;;;;;;5013703;28;94408;-76
2022/01/17 07:35:28;;;;;;;25.08;15.32;;;2.90;99.90;;;;;;5013305;28;100274;-77
2022/01/17 07:37:53;;;;;;;26.35;15.27;;;2.90;99.90;;;;;;5014130;28;95179;-76
2022/01/17 07:40:19;;;;;;;26.63;16.33;;;2.90;99.90;;;;;;5013924;28;94663;-77
2022/01/17 07:42:44;;;;;;;28.83;15.27;;;3.00;99.90;;;;;;5013886;28;94533;-79
2022/01/17 07:45:13;;;;;;;27.67;15.90;;;2.90;99.90;;;;;;5016835;28;96193;-78
2022/01/17 07:47:56;;;;;;;26.42;15.88;;;3.00;99.90;;;;;;5010066;28;95956;-77
2022/01/17 07:50:23;;;;;;;27.27;15.77;;;3.00;99.90;;;;;;4994301;28;94438;-77
2022/01/17 07:52:52;;;;;;;25.67;14.55;;;3.00;99.90;;;;;;4994358;28;94501;-79
2022/01/17 07:55:19;;;;;;;26.08;15.70;;;3.00;99.90;;;;;;4991677;28;95265;-78
2022/01/17 07:57:46;;;;;;;26.80;15.25;;;3.00;99.90;;;;;;4993833;28;94850;-77
2022/01/17 08:00:22;;;;;;;24.75;14.80;;;3.00;99.90;;;;;;5009099;28;94439;-77
2022/01/17 08:02:49;;;;;;;27.02;16.45;;;3.10;99.90;;;;;;5016201;28;93828;-78
2022/01/17 08:05:15;;;;;;;25.38;15.10;;;3.00;99.90;;;;;;5016736;28;96005;-77
2022/01/17 08:07:42;;;;;;;28.52;16.85;;;3.00;99.90;;;;;;5016920;28;94788;-78
2022/01/17 08:10:12;;;;;;;25.98;15.60;;;3.00;99.90;;;;;;5014578;28;95489;-77
2022/01/17 08:12:42;;;;;;;27.55;15.57;;;3.00;99.90;;;;;;5016686;28;94491;-78
2022/01/17 08:15:09;;;;;;;28.73;16.50;;;3.00;99.90;;;;;;5015814;28;98347;-78
2022/01/17 08:17:35;;;;;;;30.52;16.38;;;3.10;99.90;;;;;;5007566;28;98564;-78
2022/01/17 08:20:00;;;;;;;29.67;16.50;;;3.10;99.90;;;;;;4997121;28;94493;-78
2022/01/17 08:22:26;;;;;;;27.63;15.95;;;3.20;99.90;;;;;;4997033;28;94598;-78
2022/01/17 08:24:51;;;;;;;27.23;16.02;;;3.20;99.90;;;;;;4995259;28;97750;-78
2022/01/17 08:27:17;;;;;;;28.25;16.60;;;3.30;99.90;;;;;;4995190;28;101135;-77
2022/01/17 08:29:43;;;;;;;26.90;16.60;;;3.30;99.90;;;;;;5004489;28;94499;-77
2022/01/17 08:32:09;;;;;;;30.30;16.55;;;3.30;99.90;;;;;;5005869;28;94516;-79
2022/01/17 08:34:34;;;;;;;27.38;16.00;;;3.40;99.90;;;;;;5005906;28;96524;-83
2022/01/17 08:37:01;;;;;;;27.80;17.02;;;3.30;99.90;;;;;;4997796;28;94918;-77
2022/01/17 08:39:27;;;;;;;30.83;16.90;;;3.20;99.90;;;;;;4998210;28;94431;-78
2022/01/17 08:41:54;;;;;;;30.52;17.25;;;3.20;99.90;;;;;;4997945;28;94591;-78
2022/01/17 08:44:20;;;;;;;29.80;16.90;;;3.20;99.90;;;;;;4996993;28;96533;-79
2022/01/17 08:46:46;;;;;;;29.77;17.10;;;3.30;99.90;;;;;;5006854;28;94729;-79
2022/01/17 08:49:12;;;;;;;27.88;16.35;;;3.40;99.90;;;;;;5017590;28;94420;-79
2022/01/17 08:51:38;;;;;;;31.02;17.70;;;3.50;99.90;;;;;;5017718;28;93629;-79
2022/01/17 08:54:04;;;;;;;30.17;17.38;;;3.50;99.90;;;;;;5026222;28;95052;-80
2022/01/17 08:56:31;;;;;;;29.67;17.17;;;3.50;99.90;;;;;;5014520;28;95984;-78
2022/01/17 08:59:01;;;;;;;27.10;16.42;;;3.50;99.90;;;;;;5012484;28;95352;-78
2022/01/17 09:01:27;;;;;;;28.85;15.88;;;3.60;99.90;;;;;;4991755;28;94657;-78
2022/01/17 09:03:53;;;;;;;28.08;16.25;;;3.60;99.90;;;;;;4994897;28;97697;-78
2022/01/17 09:06:19;;;;;;;30.85;17.00;;;3.70;99.90;;;;;;4996971;28;96525;-79
2022/01/17 09:08:45;;;;;;;28.40;16.23;;;3.70;99.90;;;;;;4997206;28;94433;-77
2022/01/17 09:11:10;;;;;;;30.83;17.77;;;3.80;99.90;;;;;;4996556;28;95731;-77
2022/01/17 09:13:36;;;;;;;27.35;16.52;;;3.80;99.90;;;;;;4996905;28;95465;-77
2022/01/17 09:16:02;;;;;;;27.85;16.85;;;3.90;99.90;;;;;;5000391;28;93927;-77
2022/01/17 09:18:28;;;;;;;27.38;16.85;;;4.00;99.90;;;;;;5006644;28;94460;-77
2022/01/17 09:20:54;;;;;;;28.02;15.82;;;4.10;99.90;;;;;;5003150;28;94583;-77
2022/01/17 09:23:20;;;;;;;27.85;16.67;;;4.00;99.90;;;;;;4998500;28;98064;-77
2022/01/17 09:25:46;;;;;;;29.27;16.45;;;4.00;99.90;;;;;;5007411;28;96125;-77
2022/01/17 09:28:12;;;;;;;30.35;17.17;;;4.00;99.90;;;;;;5013017;28;94618;-77
2022/01/17 09:30:39;;;;;;;27.20;16.45;;;3.90;99.90;;;;;;4998601;28;96094;-77
2022/01/17 09:33:05;;;;;;;28.58;16.73;;;3.90;99.90;;;;;;5010159;28;94378;-77
2022/01/17 09:35:32;;;;;;;28.00;16.30;;;3.90;99.90;;;;;;5007052;28;94953;-77
2022/01/17 09:37:59;;;;;;;27.10;16.50;;;3.90;99.90;;;;;;5016051;28;94554;-78
2022/01/17 09:40:25;;;;;;;27.38;16.60;;;3.90;99.90;;;;;;5012895;28;93910;-78
2022/01/17 09:42:51;;;;;;;30.70;16.95;;;3.80;99.90;;;;;;4994478;28;95238;-77
2022/01/17 09:45:21;;;;;;;24.55;14.43;;;3.80;99.90;;;;;;5009327;28;94475;-77
2022/01/17 09:47:47;;;;;;;30.05;16.83;;;3.90;99.90;;;;;;4994908;28;95289;-77
2022/01/17 09:50:20;;;;;;;25.52;15.88;;;3.90;99.90;;;;;;4995340;28;94543;-77
2022/01/17 09:52:52;;;;;;;25.05;14.75;;;3.90;99.90;;;;;;4994902;28;94346;-77
2022/01/17 09:55:22;;;;;;;27.88;15.80;;;3.90;99.90;;;;;;5008963;28;94424;-77
2022/01/17 09:57:51;;;;;;;25.80;15.57;;;4.00;99.90;;;;;;5013737;28;94540;-77
2022/01/17 10:00:20;;;;;;;24.95;13.63;;;4.10;99.90;;;;;;5013596;28;94947;-77
2022/01/17 10:02:47;;;;;;;25.38;15.05;;;4.20;99.90;;;;;;4995836;28;95222;-77
2022/01/17 10:05:13;;;;;;;27.88;15.88;;;4.10;99.90;;;;;;5006052;28;97771;-78
2022/01/17 10:07:51;;;;;;;28.10;15.48;;;4.20;99.90;;;;;;5015493;28;94476;-78
2022/01/17 10:10:32;;;;;;;30.73;16.45;;;4.30;99.90;;;;;;5015107;28;94416;-77
2022/01/17 10:13:05;;;;;;;27.38;16.00;;;4.30;99.90;;;;;;4993590;28;97941;-75
2022/01/17 10:15:45;;;;;;;29.73;16.23;;;4.40;99.90;;;;;;5012581;28;96016;-76
2022/01/17 10:18:31;;;;;;;26.98;15.57;;;4.30;99.90;;;;;;5005345;28;94560;-76
2022/01/17 10:21:02;;;;;;;26.55;16.40;;;4.20;99.90;;;;;;4994730;28;94583;-76
2022/01/17 10:23:43;;;;;;;28.92;15.68;;;4.20;99.90;;;;;;5014049;28;95091;-76
2022/01/17 10:26:30;;;;;;;27.02;15.57;;;4.10;99.90;;;;;;5012944;28;96558;-76
2022/01/17 10:29:16;;;;;;;29.38;17.45;;;4.00;99.90;;;;;;5011674;28;94384;-77
2022/01/17 10:37:13;;;;;;;30.95;17.20;;;4.00;99.90;;;;;;4991871;28;94485;-77
2022/01/17 10:39:55;;;;;;;29.45;17.15;;;4.00;99.90;;;;;;4994183;28;95375;-78
2022/01/17 10:42:35;;;;;;;31.13;17.02;;;4.00;99.90;;;;;;4993213;28;94508;-76
2022/01/17 10:45:13;;;;;;;32.45;17.75;;;4.20;99.90;;;;;;4994274;28;94513;-75
2022/01/17 10:47:43;;;;;;;31.27;17.23;;;4.30;99.90;;;;;;4995261;28;95313;-78
2022/01/17 10:50:14;;;;;;;30.15;17.00;;;4.30;99.90;;;;;;4993167;28;95002;-78
2022/01/17 10:52:47;;;;;;;29.25;16.88;;;4.40;99.90;;;;;;5011616;28;94336;-76
2022/01/17 10:55:27;;;;;;;28.10;16.60;;;4.40;99.90;;;;;;5014363;28;95520;-76
2022/01/17 10:58:02;;;;;;;28.92;16.27;;;4.50;99.90;;;;;;4998557;28;94146;-75
2022/01/17 11:00:31;;;;;;;32.83;17.42;;;4.50;99.90;;;;;;4994619;28;94553;-75
2022/01/17 11:03:08;;;;;;;27.38;16.13;;;4.50;99.90;;;;;;5013142;28;94649;-76
2022/01/17 11:05:37;;;;;;;29.58;16.70;;;4.50;99.90;;;;;;5014288;28;96180;-80
2022/01/17 11:08:03;;;;;;;28.25;16.60;;;4.40;99.90;;;;;;4996994;28;96330;-78
2022/01/17 11:10:43;;;;;;;28.35;16.33;;;4.40;99.90;;;;;;4995830;28;94558;-79
2022/01/17 11:13:12;;;;;;;29.80;16.45;;;4.40;99.90;;;;;;4996004;28;94495;-81
2022/01/17 11:15:39;;;;;;;28.98;15.88;;;4.40;99.90;;;;;;4997299;28;98411;-78
2022/01/17 11:18:16;;;;;;;26.27;15.80;;;4.40;99.90;;;;;;4978790;28;95287;-78
2022/01/17 11:20:42;;;;;;;25.50;14.80;;;4.40;99.90;;;;;;4981284;28;94387;-83
2022/01/17 11:23:07;;;;;;;26.00;15.55;;;4.50;99.90;;;;;;5001026;28;93564;-84
2022/01/17 11:25:36;;;;;;;26.85;16.13;;;4.40;99.90;;;;;;4998523;28;96997;-81
2022/01/17 11:28:05;;;;;;;26.80;15.88;;;4.50;99.90;;;;;;4981409;28;94491;-83
2022/01/17 11:30:34;;;;;;;27.48;16.48;;;4.50;99.90;;;;;;4977211;28;95461;-79
2022/01/17 11:33:03;;;;;;;27.40;15.88;;;4.50;99.90;;;;;;4976543;28;94454;-80
2022/01/17 11:35:30;;;;;;;32.20;16.75;;;4.40;99.90;;;;;;4988619;28;96642;-78
2022/01/17 11:37:59;;;;;;;25.77;15.55;;;4.50;99.90;;;;;;4999778;28;95016;-78
2022/01/17 11:40:33;;;;;;;25.98;15.45;;;4.50;99.90;;;;;;4997503;28;94309;-78
2022/01/17 11:43:00;;;;;;;25.58;15.48;;;4.50;99.90;;;;;;5010308;28;94529;-75
2022/01/17 11:45:28;;;;;;;25.83;15.90;;;4.50;99.90;;;;;;5010570;28;96909;-77
2022/01/17 11:47:57;;;;;;;25.40;15.23;;;4.50;99.90;;;;;;5017696;28;94231;-77
2022/01/17 11:50:33;;;;;;;24.88;15.10;;;4.50;99.90;;;;;;5001856;28;94603;-78
2022/01/17 11:53:11;;;;;;;26.92;15.40;;;4.60;99.90;;;;;;5012559;28;94940;-79
2022/01/17 11:55:42;;;;;;;26.35;15.35;;;4.60;99.90;;;;;;5016704;28;97895;-80
2022/01/17 11:58:39;;;;;;;25.45;14.70;;;4.70;99.90;;;;;;5023020;28;96386;-78
2022/01/17 12:01:04;;;;;;;24.50;15.27;;;4.70;99.90;;;;;;5021942;28;94322;-79
2022/01/17 12:03:40;;;;;;;24.42;15.18;;;4.80;99.90;;;;;;5017182;28;94449;-79
2022/01/17 12:06:25;;;;;;;24.98;15.80;;;4.70;99.90;;;;;;5030563;28;94520;-79
2022/01/17 12:09:26;;;;;;;28.90;17.55;;;4.70;99.90;;;;;;5019832;28;95415;-78
2022/01/17 12:12:07;;;;;;;27.65;14.95;;;4.90;99.90;;;;;;5003981;28;94534;-77
2022/01/17 12:14:36;;;;;;;24.27;15.07;;;5.00;99.90;;;;;;5018556;28;93729;-79
2022/01/17 12:17:20;;;;;;;24.65;15.93;;;5.00;99.90;;;;;;5019556;28;97814;-81
2022/01/17 12:20:04;;;;;;;26.10;15.07;;;5.00;99.90;;;;;;5018512;28;96866;-80
2022/01/17 12:23:10;;;;;;;24.05;14.02;;;5.00;99.90;;;;;;5000041;28;95424;-82
2022/01/17 12:25:36;;;;;;;23.75;14.18;;;5.10;99.90;;;;;;4979857;28;94450;-82
2022/01/17 12:28:04;;;;;;;19.83;12.75;;;5.10;99.90;;;;;;4979796;28;94741;-80
2022/01/17 12:30:51;;;;;;;23.08;13.73;;;5.10;99.90;;;;;;5004663;28;97601;-80
2022/01/17 12:33:34;;;;;;;24.23;14.10;;;5.20;99.90;;;;;;5003292;28;94423;-80
2022/01/17 12:36:03;;;;;;;20.42;12.93;;;5.30;99.90;;;;;;4997625;28;94439;-78
2022/01/17 12:38:36;;;;;;;20.13;12.57;;;5.50;99.90;;;;;;4999017;28;95755;-78
2022/01/17 12:41:03;;;;;;;21.52;13.35;;;5.60;99.90;;;;;;5013519;28;94879;-78
2022/01/17 12:43:34;;;;;;;21.42;12.43;;;5.80;99.90;;;;;;5005752;28;94414;-79
2022/01/17 12:46:03;;;;;;;21.52;12.82;;;5.80;99.90;;;;;;4998077;28;94102;-78
2022/01/17 12:48:30;;;;;;;23.30;13.05;;;5.90;99.90;;;;;;4996949;28;98079;-79
2022/01/17 12:50:57;;;;;;;19.75;12.15;;;5.90;99.90;;;;;;4997914;28;94822;-78
2022/01/17 12:53:25;;;;;;;20.27;13.15;;;6.00;99.90;;;;;;4997934;28;94525;-78
2022/01/17 12:55:57;;;;;;;23.17;13.40;;;5.90;99.90;;;;;;4997352;28;94666;-78
2022/01/17 12:58:30;;;;;;;23.17;13.95;;;5.80;99.90;;;;;;5007937;28;95681;-78
2022/01/17 13:01:05;;;;;;;21.80;13.52;;;5.70;99.90;;;;;;5003670;28;95677;-79
2022/01/17 13:03:33;;;;;;;21.10;12.73;;;5.70;99.90;;;;;;5003664;28;94918;-78
2022/01/17 13:06:00;;;;;;;22.88;13.27;;;5.90;99.90;;;;;;5011077;28;93793;-78
2022/01/17 13:08:25;;;;;;;19.95;12.57;;;6.00;99.90;;;;;;4999679;28;94354;-78
2022/01/17 13:10:52;;;;;;;24.85;13.88;;;6.00;99.90;;;;;;5009364;28;94371;-79
2022/01/17 13:13:18;;;;;;;23.40;13.25;;;5.90;99.90;;;;;;4998951;28;95431;-78
2022/01/17 13:16:01;;;;;;;22.15;13.52;;;5.80;99.90;;;;;;5005278;28;94519;-78
2022/01/17 13:18:29;;;;;;;20.90;13.07;;;5.60;99.90;;;;;;5000315;28;95227;-78
2022/01/17 13:20:56;;;;;;;21.98;12.30;;;5.40;99.90;;;;;;5009566;28;95322;-78
2022/01/17 13:23:32;;;;;;;21.20;12.82;;;5.30;99.90;;;;;;5000402;28;94426;-78
2022/01/17 13:25:59;;;;;;;22.20;12.65;;;5.30;99.90;;;;;;5003068;28;94575;-79
2022/01/17 13:28:25;;;;;;;24.45;13.50;;;5.60;99.90;;;;;;5011137;28;95517;-78
2022/01/17 13:30:50;;;;;;;21.88;13.68;;;5.70;99.90;;;;;;5005945;28;97642;-78
2022/01/17 13:33:16;;;;;;;20.98;12.90;;;5.70;99.90;;;;;;5003822;28;94506;-78
2022/01/17 13:35:45;;;;;;;40.63;14.30;;;5.70;99.90;;;;;;4998404;28;94335;-78
2022/01/17 13:38:22;;;;;;;30.17;14.20;;;5.80;99.90;;;;;;4996713;28;95523;-78
2022/01/17 13:40:56;;;;;;;44.30;14.93;;;5.90;99.90;;;;;;5005470;28;98710;-77
2022/01/17 13:43:22;;;;;;;23.98;12.73;;;6.00;99.90;;;;;;5014232;28;94445;-79
2022/01/17 13:45:51;;;;;;;19.52;11.93;;;6.00;99.90;;;;;;5016163;28;94407;-77
2022/01/17 13:48:22;;;;;;;17.77;11.52;;;5.90;99.90;;;;;;5002712;28;94354;-78
2022/01/17 13:50:55;;;;;;;19.90;11.52;;;5.90;99.90;;;;;;5006220;28;95311;-78
2022/01/17 13:53:25;;;;;;;19.70;10.60;;;5.90;99.90;;;;;;5011068;28;94960;-78
2022/01/17 13:55:54;;;;;;;17.02;11.02;;;5.90;99.90;;;;;;5008982;28;93856;-78
2022/01/17 13:58:21;;;;;;;17.63;11.02;;;5.90;99.90;;;;;;5007108;28;94573;-78
2022/01/17 14:00:53;;;;;;;20.65;10.85;;;5.70;99.90;;;;;;5008919;28;95052;-79
2022/01/17 14:03:24;;;;;;;18.63;11.32;;;5.60;99.90;;;;;;5013561;28;95525;-77
2022/01/17 14:05:52;;;;;;;18.77;11.13;;;5.50;99.90;;;;;;5013950;28;94493;-81
2022/01/17 14:08:27;;;;;;;21.83;11.20;;;5.40;99.90;;;;;;5014823;28;96915;-80
2022/01/17 14:10:58;;;;;;;20.17;9.48;;;5.40;99.90;;;;;;5007681;28;97289;-77
2022/01/17 14:13:50;;;;;;;17.67;10.10;;;5.50;99.90;;;;;;5014174;28;94621;-78
2022/01/17 14:16:40;;;;;;;15.75;9.40;;;5.40;99.90;;;;;;4960053;28;94728;-78
2022/01/17 14:19:16;;;;;;;16.02;9.05;;;5.40;99.90;;;;;;4996397;28;98111;-78
2022/01/17 14:21:43;;;;;;;19.75;10.77;;;5.30;99.90;;;;;;5016250;28;97319;-78
2022/01/17 14:24:20;;;;;;;17.50;10.18;;;5.30;99.90;;;;;;4996935;28;94455;-78
2022/01/17 14:26:50;;;;;;;18.20;10.20;;;5.20;99.90;;;;;;4999360;28;94474;-78
2022/01/17 14:29:17;;;;;;;17.48;10.52;;;5.20;99.90;;;;;;5000874;28;96643;-77
2022/01/17 14:31:48;;;;;;;16.45;9.95;;;5.20;99.90;;;;;;5014602;28;98996;-78
2022/01/17 14:34:20;;;;;;;18.23;11.27;;;5.10;99.90;;;;;;4979073;28;94342;-78
2022/01/17 14:37:08;;;;;;;19.73;11.48;;;5.10;99.90;;;;;;4996954;28;94551;-77
2022/01/17 14:39:46;;;;;;;18.50;11.63;;;5.00;99.90;;;;;;4995885;28;96690;-78
2022/01/17 14:42:18;;;;;;;17.35;11.30;;;4.90;99.90;;;;;;5009202;28;94749;-77
2022/01/17 14:44:51;;;;;;;21.60;12.70;;;4.90;99.90;;;;;;5000342;28;94539;-78
2022/01/17 14:47:20;;;;;;;19.67;11.93;;;4.90;99.90;;;;;;5019635;28;93727;-77
2022/01/17 14:49:59;;;;;;;19.42;11.98;;;4.90;99.90;;;;;;5015779;28;95469;-78
2022/01/17 14:52:30;;;;;;;20.35;12.43;;;4.90;99.90;;;;;;4997616;28;96852;-78
2022/01/17 15:00:13;;;;;;;22.05;12.30;;;4.80;99.90;;;;;;5013847;28;94761;-78
2022/01/17 15:03:27;;;;;;;17.60;11.13;;;4.80;99.90;;;;;;5005854;28;97576;-81
2022/01/17 15:05:28;;;;;;;22.17;12.27;;;4.80;99.90;;;;;;5011826;28;94710;-81
2022/01/17 15:07:54;;;;;;;23.27;12.15;;;4.70;99.90;;;;;;5024356;28;94580;-82
2022/01/17 15:10:22;;;;;;;20.95;12.80;;;4.80;99.90;;;;;;5026613;28;96914;-82
2022/01/17 15:12:48;;;;;;;22.23;13.23;;;4.70;99.90;;;;;;5018704;28;94333;-84
2022/01/17 15:15:15;;;;;;;19.17;11.68;;;4.70;99.90;;;;;;5013403;28;94456;-84
2022/01/17 15:17:48;;;;;;;19.88;12.80;;;4.70;99.90;;;;;;4999715;28;94553;-86
2022/01/17 15:20:14;;;;;;;18.23;11.98;;;4.60;99.90;;;;;;5014119;28;99707;-85
2022/01/17 15:22:40;;;;;;;24.65;13.13;;;4.70;99.90;;;;;;5015926;28;97652;-85
2022/01/17 15:25:06;;;;;;;20.10;11.50;;;4.70;99.90;;;;;;5000645;28;94487;-84
2022/01/17 15:27:32;;;;;;;20.20;12.15;;;4.60;99.90;;;;;;5018799;28;94423;-84
2022/01/17 15:30:02;;;;;;;21.02;11.77;;;4.60;99.90;;;;;;5012675;28;97112;-83
2022/01/17 15:32:27;;;;;;;20.92;12.13;;;4.60;99.90;;;;;;5005136;28;96923;-82
2022/01/17 15:34:53;;;;;;;22.70;13.40;;;4.60;99.90;;;;;;5013610;28;94584;-80
2022/01/17 15:37:18;;;;;;;21.10;12.57;;;4.60;99.90;;;;;;4979233;28;93774;-81
2022/01/17 15:39:45;;;;;;;19.92;12.05;;;4.60;99.90;;;;;;4980576;28;95661;-82
2022/01/17 15:42:16;;;;;;;28.75;14.10;;;4.70;99.90;;;;;;4999001;28;94363;-82
2022/01/17 15:44:43;;;;;;;20.38;12.43;;;4.70;99.90;;;;;;4998339;28;95631;-82
2022/01/17 15:47:13;;;;;;;20.20;12.93;;;4.60;99.90;;;;;;4979047;28;94594;-82
2022/01/17 15:49:40;;;;;;;24.52;13.73;;;4.60;99.90;;;;;;4996951;28;97269;-83
2022/01/17 15:52:06;;;;;;;21.60;13.60;;;4.50;99.90;;;;;;5012616;28;95459;-82
2022/01/17 15:54:32;;;;;;;23.55;15.00;;;4.50;99.90;;;;;;5019827;28;93917;-82
2022/01/17 15:56:59;;;;;;;22.95;13.60;;;4.50;99.90;;;;;;5015187;28;94592;-83
2022/01/17 15:59:26;;;;;;;24.38;13.18;;;4.50;99.90;;;;;;5000819;28;97310;-82
2022/01/17 16:01:52;;;;;;;20.70;13.05;;;4.50;99.90;;;;;;5000654;28;98741;-82
2022/01/17 16:04:17;;;;;;;21.00;13.07;;;4.50;99.90;;;;;;4997475;28;94538;-83
2022/01/17 16:06:43;;;;;;;22.38;14.30;;;4.50;99.90;;;;;;5016691;28;94395;-82
2022/01/17 16:09:10;;;;;;;25.13;14.75;;;4.50;99.90;;;;;;5019226;28;97495;-82
2022/01/17 16:11:39;;;;;;;23.38;13.18;;;4.40;99.90;;;;;;5002804;28;99127;-82
2022/01/17 16:14:06;;;;;;;25.25;14.25;;;4.40;99.90;;;;;;5001585;28;94396;-83
2022/01/17 16:16:31;;;;;;;21.83;13.45;;;4.40;99.90;;;;;;4998540;28;96334;-82
2022/01/17 16:18:57;;;;;;;23.65;14.25;;;4.40;99.90;;;;;;5003904;28;95363;-80
2022/01/17 16:21:23;;;;;;;26.73;17.30;;;4.40;99.90;;;;;;5004379;28;96777;-81
2022/01/17 16:23:49;;;;;;;25.35;15.35;;;4.40;99.90;;;;;;4992431;28;94587;-82
2022/01/17 16:26:15;;;;;;;24.80;15.45;;;4.30;99.90;;;;;;4996480;28;93871;-82
2022/01/17 16:28:41;;;;;;;26.63;17.38;;;4.40;99.90;;;;;;5004308;28;94576;-82
2022/01/17 16:31:06;;;;;;;26.45;16.20;;;4.30;99.90;;;;;;5007769;28;98072;-82
2022/01/17 16:33:32;;;;;;;23.95;14.68;;;4.40;99.90;;;;;;5009236;28;95385;-81
2022/01/17 16:35:58;;;;;;;24.10;14.73;;;4.30;99.90;;;;;;4999044;28;94481;-83
2022/01/17 16:38:24;;;;;;;21.60;13.57;;;4.40;99.90;;;;;;5000382;28;95675;-82
2022/01/17 16:40:50;;;;;;;27.30;16.25;;;4.30;99.90;;;;;;5000660;28;98213;-82
2022/01/17 16:43:16;;;;;;;26.42;15.90;;;4.30;99.90;;;;;;5001605;28;94757;-81
2022/01/17 16:45:43;;;;;;;26.95;16.65;;;4.20;99.90;;;;;;5002421;28;94361;-84
2022/01/17 16:48:09;;;;;;;29.25;17.73;;;4.10;99.90;;;;;;5002631;28;95706;-82
2022/01/17 16:50:36;;;;;;;28.00;17.42;;;4.20;99.90;;;;;;4999072;28;98950;-82
2022/01/17 16:53:03;;;;;;;28.10;16.92;;;4.10;99.90;;;;;;5000468;28;94518;-81
2022/01/17 16:55:30;;;;;;;30.05;16.77;;;4.10;99.90;;;;;;4998461;28;94519;-80
2022/01/17 16:57:56;;;;;;;26.85;16.27;;;4.10;99.90;;;;;;4997745;28;99250;-81
2022/01/17 17:00:22;;;;;;;25.75;16.05;;;4.00;99.90;;;;;;4999181;28;99121;-82
2022/01/17 17:02:47;;;;;;;29.45;17.15;;;3.90;99.90;;;;;;4998217;28;94836;-81
2022/01/17 17:05:14;;;;;;;32.00;18.15;;;3.90;99.90;;;;;;4999217;28;94642;-81
2022/01/17 17:07:39;;;;;;;32.17;18.10;;;3.90;99.90;;;;;;5010278;28;95180;-82
2022/01/17 17:10:07;;;;;;;31.25;18.20;;;3.90;99.90;;;;;;5019890;28;95289;-81
2022/01/17 17:12:33;;;;;;;31.08;18.05;;;3.90;99.90;;;;;;5018262;28;94477;-81
2022/01/17 17:14:59;;;;;;;27.48;15.35;;;3.90;99.90;;;;;;5012598;22;94480;-77
2022/01/17 17:17:25;;;;;;;28.08;17.35;;;3.90;99.90;;;;;;4995257;28;95192;-76
2022/01/17 17:19:50;;;;;;;28.52;17.20;;;3.90;99.90;;;;;;4995574;28;95450;-78
2022/01/17 17:22:16;;;;;;;29.67;17.45;;;3.90;99.90;;;;;;4995108;28;95462;-76
2022/01/17 17:24:43;;;;;;;30.88;17.60;;;4.00;99.90;;;;;;4994390;28;94493;-76
2022/01/17 17:27:09;;;;;;;30.02;17.05;;;4.00;99.90;;;;;;4974150;28;96787;-77
2022/01/17 17:29:35;;;;;;;30.17;16.85;;;4.00;99.90;;;;;;4983854;28;94420;-76
2022/01/17 17:32:01;;;;;;;31.83;19.00;;;4.00;99.90;;;;;;4991019;28;94429;-81
2022/01/17 17:34:27;;;;;;;29.95;17.88;;;4.00;99.90;;;;;;4996480;28;94554;-77
2022/01/17 17:36:54;;;;;;;30.58;17.75;;;4.00;99.90;;;;;;4976177;28;95591;-76
2022/01/17 17:39:20;;;;;;;31.13;17.55;;;4.00;99.90;;;;;;4980753;28;96904;-77
2022/01/17 17:41:46;;;;;;;30.20;17.75;;;3.90;99.90;;;;;;4989549;28;94558;-76
2022/01/17 17:44:11;;;;;;;29.83;17.40;;;3.90;99.90;;;;;;4977205;28;94559;-76
2022/01/17 17:46:37;;;;;;;30.17;17.40;;;4.00;99.90;;;;;;4976535;28;96428;-75
2022/01/17 17:49:04;;;;;;;31.27;17.23;;;4.00;99.90;;;;;;4975550;28;96117;-75
2022/01/17 17:51:29;;;;;;;28.40;17.10;;;4.00;99.90;;;;;;4993164;28;94459;-75
2022/01/17 17:53:57;;;;;;;26.25;16.13;;;4.00;99.90;;;;;;4985355;28;94355;-74
2022/01/17 17:56:23;;;;;;;26.50;15.85;;;4.10;99.90;;;;;;4974597;28;98133;-75
2022/01/17 17:58:48;;;;;;;30.45;17.23;;;4.10;99.90;;;;;;4991888;28;95586;-75